Terminal Aerodrome Forecast
Issued by NWS Upton, NY

Home | Current Version | Previous Version | Text Only | Print | Product List | Glossary On
Versions: 1 2 3 4 5 6 7 8 9 10 11 12 13 14 15 16 17 18 19 20 21 22 23 24 25 26 27
000
FTUS41 KOKX 042320
TAFEWR
TAF
KEWR 042320Z 0500/0606 21014G22KT P6SM FEW080
     FM050200 22011KT P6SM FEW080
     FM051100 26006KT P6SM FEW040 BKN100
     FM051500 29006KT P6SM VCSH SCT040 BKN100
     FM051900 25006KT P6SM VCTS BKN040CB
     FM060100 VRB05KT P6SM SCT040 BKN100=

USA.gov is the U.S. government's official web portal to all federal, state and local government web resources and services.